createdAt,value
2019-02-10T00:03:06.102Z,618.42
2019-02-10T00:09:36.957Z,608.98
2019-02-10T00:16:10.762Z,601.27
2019-02-10T00:22:42.218Z,603.98
2019-02-10T00:26:06.583Z,605.17
2019-02-10T00:32:37.304Z,600.10
2019-02-10T00:36:01.689Z,591.80
2019-02-10T00:42:32.812Z,578.38
2019-02-10T00:49:03.234Z,569.08
2019-02-10T00:52:27.683Z,566.40
2019-02-10T00:58:58.413Z,581.37
2019-02-10T01:05:28.782Z,589.35
2019-02-10T01:08:53.310Z,594.40
2019-02-10T01:15:24.455Z,600.67
2019-02-10T01:21:57.734Z,601.98
2019-02-10T01:25:23.702Z,597.98
2019-02-10T01:31:55.996Z,611.65
2019-02-10T01:38:26.423Z,613.00
2019-02-10T01:44:57.192Z,624.30
2019-02-10T01:51:28.148Z,636.17
2019-02-10T01:57:58.429Z,657.92
2019-02-10T02:00:28.523Z,659.00
2019-02-10T02:06:59.156Z,667.27
2019-02-10T02:13:30.368Z,679.48
2019-02-10T02:16:54.722Z,672.37
2019-02-10T02:23:25.616Z,672.95
2019-02-10T02:26:50.347Z,678.52
2019-02-10T02:33:21.453Z,683.53
2019-02-10T02:39:51.965Z,668.13
2019-02-10T02:46:25.276Z,652.00
2019-02-10T02:52:56.454Z,657.70
2019-02-10T02:59:27.068Z,658.07
2019-02-10T03:01:58.073Z,649.15
2019-02-10T03:08:28.633Z,650.77
2019-02-10T03:14:59.967Z,618.50
2019-02-10T03:21:31.414Z,573.65
2019-02-10T03:28:01.935Z,584.98
2019-02-10T03:31:26.488Z,587.50
2019-02-10T03:37:57.165Z,580.67
2019-02-10T03:44:27.502Z,580.03
2019-02-10T03:47:51.965Z,580.87
2019-02-10T03:54:22.771Z,583.17
2019-02-10T03:57:47.125Z,585.20
2019-02-10T04:04:18.042Z,578.17
2019-02-10T04:10:49.285Z,563.90
2019-02-10T04:17:21.172Z,553.90
2019-02-10T04:23:52.182Z,544.77
2019-02-10T04:27:16.950Z,538.70
2019-02-10T04:33:47.851Z,534.70
2019-02-10T04:37:12.318Z,527.28
2019-02-10T04:43:43.213Z,529.75
2019-02-10T04:47:07.632Z,526.92
2019-02-10T04:53:38.417Z,532.88
2019-02-10T05:00:11.107Z,524.40
2019-02-10T05:06:42.543Z,525.55
2019-02-10T05:13:13.463Z,535.45
2019-02-10T05:19:44.456Z,535.60
2019-02-10T05:23:09.207Z,530.75
2019-02-10T05:29:39.913Z,537.80
2019-02-10T05:33:07.240Z,539.83
2019-02-10T05:39:38.258Z,536.25
2019-02-10T05:43:02.692Z,541.40
2019-02-10T05:49:33.812Z,533.00
2019-02-10T05:56:04.780Z,527.78
2019-02-10T06:02:35.428Z,517.17
2019-02-10T06:09:06.645Z,509.10
2019-02-10T06:15:37.546Z,512.50
2019-02-10T06:18:07.607Z,509.05
2019-02-10T06:24:38.295Z,507.92
2019-02-10T06:28:02.883Z,514.37
2019-02-10T06:34:33.590Z,507.95
2019-02-10T06:37:58.007Z,503.40
2019-02-10T06:44:28.784Z,498.13
2019-02-10T06:51:00.017Z,493.57
2019-02-10T06:57:30.924Z,501.98
2019-02-10T07:04:04.378Z,515.03
2019-02-10T07:07:28.994Z,518.67
2019-02-10T07:09:59.067Z,520.95
2019-02-10T07:16:38.556Z,560.42
2019-02-10T07:23:38.662Z,591.25
2019-02-10T07:30:12.781Z,619.50
2019-02-10T07:36:52.417Z,645.92
2019-02-10T07:43:32.381Z,663.48
2019-02-10T07:46:17.155Z,667.80
2019-02-10T07:53:03.650Z,669.00
2019-02-10T07:59:46.777Z,648.13
2019-02-10T08:06:23.808Z,637.40
2019-02-10T08:12:57.333Z,633.75
2019-02-10T08:19:39.552Z,644.25
2019-02-10T08:26:28.976Z,636.02
2019-02-10T08:29:53.299Z,630.67
2019-02-10T08:36:49.733Z,651.22
2019-02-10T08:43:23.222Z,678.58
2019-02-10T08:46:47.667Z,681.50
2019-02-10T08:53:21.077Z,715.52
2019-02-10T08:56:45.395Z,717.53
2019-02-10T09:03:19.583Z,740.38
2019-02-10T09:09:47.529Z,751.17
2019-02-10T09:16:17.667Z,769.58
2019-02-10T09:22:48.436Z,780.75
2019-02-10T09:29:18.939Z,802.43
2019-02-10T09:35:50.057Z,844.58
2019-02-10T09:39:14.584Z,847.93
2019-02-10T09:45:45.341Z,869.88
2019-02-10T09:49:09.665Z,867.28
2019-02-10T09:55:39.979Z,881.38
2019-02-10T09:59:04.278Z,888.67
2019-02-10T10:05:34.778Z,901.43
2019-02-10T10:08:59.283Z,915.47
2019-02-10T10:15:29.715Z,910.90
2019-02-10T10:17:59.510Z,930.30
2019-02-10T10:24:30.265Z,946.70
2019-02-10T10:31:01.169Z,958.38
2019-02-10T10:34:25.671Z,964.02
2019-02-10T10:40:56.611Z,944.10
2019-02-10T10:44:21.228Z,935.00
2019-02-10T10:50:51.941Z,924.30
2019-02-10T10:57:25.113Z,920.55
2019-02-10T11:03:55.586Z,905.95
2019-02-10T11:07:20.103Z,908.42
2019-02-10T11:13:51.355Z,892.95
2019-02-10T11:20:22.548Z,891.68
2019-02-10T11:26:54.025Z,886.92
2019-02-10T11:33:26.549Z,899.45
2019-02-10T11:36:50.963Z,910.77
2019-02-10T11:43:22.883Z,891.55
2019-02-10T11:46:47.917Z,875.87
2019-02-10T11:53:18.519Z,887.65
2019-02-10T11:56:43.305Z,883.97
2019-02-10T12:03:14.336Z,898.47
2019-02-10T12:06:38.815Z,895.10
2019-02-10T12:13:10.141Z,905.52
2019-02-10T12:16:34.670Z,898.05
2019-02-10T12:23:05.926Z,904.33
2019-02-10T12:26:12.367Z,911.60
2019-02-10T12:32:43.428Z,930.90
2019-02-10T12:39:14.068Z,942.73
2019-02-10T12:42:38.629Z,950.20
2019-02-10T12:49:09.081Z,965.05
2019-02-10T12:52:33.817Z,973.45
2019-02-10T12:59:04.460Z,999.37
2019-02-10T13:02:28.914Z,999.90
2019-02-10T13:08:59.613Z,999.90
2019-02-10T13:12:23.873Z,999.90
2019-02-10T13:18:54.132Z,999.90
2019-02-10T13:22:16.763Z,999.90
2019-02-10T13:24:46.585Z,999.90
2019-02-10T13:31:17.045Z,999.90
2019-02-10T13:37:47.128Z,979.60
2019-02-10T13:44:17.200Z,957.67
2019-02-10T13:47:41.393Z,944.17
2019-02-10T13:54:11.625Z,916.75
2019-02-10T13:57:35.604Z,922.42
2019-02-10T14:04:06.265Z,905.98
2019-02-10T14:10:36.845Z,899.85
2019-02-10T14:14:01.156Z,900.85
2019-02-10T14:20:32.355Z,916.05
2019-02-10T14:27:03.851Z,916.87
2019-02-10T14:33:38.816Z,911.50
2019-02-10T14:40:07.886Z,907.77
2019-02-10T14:46:38.737Z,904.27
2019-02-10T14:50:03.457Z,899.90
2019-02-10T14:56:34.011Z,904.05
2019-02-10T15:03:05.261Z,904.12
2019-02-10T15:09:36.180Z,896.42
2019-02-10T15:16:07.298Z,876.82
2019-02-10T15:22:37.999Z,869.70
2019-02-10T15:29:08.809Z,868.37
2019-02-10T15:35:39.695Z,869.63
2019-02-10T15:42:10.872Z,866.27
2019-02-10T15:45:35.345Z,877.00
2019-02-10T15:52:06.225Z,847.48
2019-02-10T15:55:30.746Z,850.38
2019-02-10T16:02:01.496Z,855.15
2019-02-10T16:08:32.353Z,858.47
2019-02-10T16:11:56.779Z,843.95
2019-02-10T16:18:27.354Z,849.00
2019-02-10T16:21:52.038Z,849.55
2019-02-10T16:28:22.698Z,837.97
2019-02-10T16:30:52.737Z,825.43
2019-02-10T16:37:22.860Z,841.53
2019-02-10T16:40:47.357Z,842.28
2019-02-10T16:47:17.721Z,795.50
2019-02-10T16:53:48.061Z,732.77
2019-02-10T17:00:20.197Z,671.00
2019-02-10T17:06:50.914Z,634.92
2019-02-10T17:13:21.847Z,591.58
2019-02-10T17:19:52.320Z,558.90
2019-02-10T17:23:16.979Z,543.20
2019-02-10T17:29:47.961Z,525.62
2019-02-10T17:36:18.360Z,525.58
2019-02-10T17:39:42.898Z,522.65
2019-02-10T17:46:13.817Z,516.40
2019-02-10T17:49:38.409Z,522.27
2019-02-10T17:56:10.717Z,512.55
2019-02-10T17:59:35.020Z,510.57
2019-02-10T18:06:08.032Z,515.60
2019-02-10T18:09:32.743Z,513.90
2019-02-10T18:16:04.618Z,517.33
2019-02-10T18:19:29.484Z,511.08
2019-02-10T18:26:04.773Z,518.48
2019-02-10T18:28:54.131Z,521.22
2019-02-10T18:31:40.823Z,513.63
2019-02-10T18:38:26.704Z,519.42
2019-02-10T18:41:50.964Z,528.38
2019-02-10T18:48:24.491Z,525.22
2019-02-10T18:54:58.937Z,517.70
2019-02-10T18:58:23.582Z,518.70
2019-02-10T19:04:58.734Z,522.45
2019-02-10T19:11:30.601Z,518.17
2019-02-10T19:14:15.443Z,519.47
2019-02-10T19:16:46.984Z,521.98
2019-02-10T19:20:11.195Z,524.50
2019-02-10T19:26:59.469Z,525.98
2019-02-10T19:33:31.401Z,539.30
2019-02-10T19:40:03.100Z,540.80
2019-02-10T19:46:47.248Z,533.77
2019-02-10T19:50:11.755Z,534.75
2019-02-10T19:57:01.840Z,533.83
2019-02-10T20:03:46.494Z,526.27
2019-02-10T20:07:11.269Z,528.80
2019-02-10T20:13:59.836Z,523.13
2019-02-10T20:17:24.460Z,528.45
2019-02-10T20:24:03.733Z,534.30
2019-02-10T20:30:48.661Z,527.42
2019-02-10T20:37:23.678Z,528.30
2019-02-10T20:43:56.168Z,527.75
2019-02-10T20:50:28.457Z,526.83
2019-02-10T20:57:01.184Z,529.23
2019-02-10T21:03:42.670Z,526.63
2019-02-10T21:10:18.217Z,526.05
2019-02-10T21:13:42.941Z,526.65
2019-02-10T21:20:16.059Z,507.02
2019-02-10T21:26:48.502Z,464.85
2019-02-10T21:30:13.089Z,457.87
2019-02-10T21:36:45.842Z,450.32
2019-02-10T21:43:24.170Z,434.17
2019-02-10T21:49:54.953Z,419.75
2019-02-10T21:53:19.835Z,416.50
2019-02-10T21:59:50.968Z,409.55
2019-02-10T22:06:21.907Z,407.00
2019-02-10T22:09:46.813Z,404.75
2019-02-10T22:16:17.473Z,411.38
2019-02-10T22:19:42.136Z,413.40
2019-02-10T22:26:13.707Z,420.92
2019-02-10T22:32:44.411Z,429.32
2019-02-10T22:39:15.086Z,437.50
2019-02-10T22:45:45.909Z,439.43
2019-02-10T22:49:10.308Z,438.48
2019-02-10T22:55:41.574Z,443.15
2019-02-10T22:59:06.060Z,445.23
2019-02-10T23:05:37.059Z,451.80
2019-02-10T23:09:01.703Z,455.63
2019-02-10T23:15:32.331Z,470.65
2019-02-10T23:18:56.697Z,479.53
2019-02-10T23:25:27.804Z,480.35
2019-02-10T23:32:00.333Z,469.45
2019-02-10T23:35:24.811Z,468.77
2019-02-10T23:41:55.906Z,456.77
2019-02-10T23:48:26.433Z,452.58
2019-02-10T23:54:57.323Z,445.40
